createdAt,value
2023-01-29T00:01:10.593Z,7.32
2023-01-29T00:03:42.704Z,8.80
2023-01-29T00:06:14.671Z,8.32
2023-01-29T00:08:47.507Z,6.78
2023-01-29T00:11:20.573Z,9.05
2023-01-29T00:13:53.003Z,8.82
2023-01-29T00:16:26.510Z,7.97
2023-01-29T00:18:58.451Z,9.25
2023-01-29T00:21:31.171Z,8.02
2023-01-29T00:24:03.270Z,8.93
2023-01-29T00:26:35.269Z,9.40
2023-01-29T00:29:07.277Z,10.73
2023-01-29T00:31:40.774Z,7.60
2023-01-29T00:34:12.842Z,7.72
2023-01-29T00:36:45.707Z,8.07
2023-01-29T00:39:29.373Z,8.27
2023-01-29T00:42:26.638Z,9.23
2023-01-29T00:47:33.348Z,8.25
2023-01-29T00:50:07.591Z,9.68
2023-01-29T00:52:42.911Z,10.57
2023-01-29T00:55:14.825Z,11.13
2023-01-29T00:57:46.860Z,8.52
2023-01-29T01:00:19.759Z,11.80
2023-01-29T01:03:05.599Z,9.52
2023-01-29T01:05:39.139Z,10.20
2023-01-29T01:08:30.185Z,8.43
2023-01-29T01:11:05.069Z,11.63
2023-01-29T01:13:37.685Z,10.13
2023-01-29T01:16:10.739Z,10.98
2023-01-29T01:18:44.102Z,11.52
2023-01-29T01:21:16.011Z,12.40
2023-01-29T01:23:48.072Z,11.18
2023-01-29T01:26:19.981Z,9.80
2023-01-29T01:28:52.061Z,13.57
2023-01-29T01:31:24.165Z,13.45
2023-01-29T01:33:57.765Z,11.18
2023-01-29T01:36:32.404Z,11.48
2023-01-29T01:39:04.456Z,11.80
2023-01-29T01:41:36.829Z,14.18
2023-01-29T01:44:50.285Z,11.50
2023-01-29T01:47:28.010Z,12.80
2023-01-29T01:50:08.294Z,14.88
2023-01-29T01:52:43.942Z,15.35
2023-01-29T01:55:20.015Z,15.90
2023-01-29T01:57:57.590Z,16.23
2023-01-29T02:00:29.804Z,15.63
2023-01-29T02:03:21.593Z,12.60
2023-01-29T02:06:15.763Z,13.45
2023-01-29T02:09:14.140Z,12.30
2023-01-29T02:11:46.321Z,12.13
2023-01-29T02:14:18.681Z,12.00
2023-01-29T02:16:51.379Z,14.05
2023-01-29T02:19:40.833Z,14.45
2023-01-29T02:22:29.658Z,12.23
2023-01-29T02:25:33.440Z,18.08
2023-01-29T02:28:29.086Z,13.60
2023-01-29T02:31:09.737Z,14.70
2023-01-29T02:33:55.529Z,15.13
2023-01-29T02:36:35.435Z,11.77
2023-01-29T02:39:15.321Z,13.75
2023-01-29T02:41:56.658Z,13.65
2023-01-29T02:44:37.724Z,18.73
2023-01-29T02:47:17.980Z,13.90
2023-01-29T02:52:29.153Z,12.07
2023-01-29T02:55:06.750Z,15.23
2023-01-29T02:57:43.247Z,11.95
2023-01-29T03:00:20.558Z,14.20
2023-01-29T03:02:58.639Z,15.98
2023-01-29T03:05:34.555Z,14.13
2023-01-29T03:08:11.238Z,12.77
2023-01-29T03:10:48.274Z,11.88
2023-01-29T03:13:31.095Z,10.85
2023-01-29T03:16:10.453Z,12.40
2023-01-29T03:18:54.867Z,13.68
2023-01-29T03:21:50.148Z,10.70
2023-01-29T03:24:48.137Z,11.27
2023-01-29T03:27:43.551Z,13.13
2023-01-29T03:30:37.302Z,10.15
2023-01-29T03:33:35.655Z,11.00
2023-01-29T03:36:13.938Z,17.13
2023-01-29T03:38:46.051Z,13.50
2023-01-29T03:41:25.348Z,12.00
2023-01-29T03:44:09.485Z,13.63
2023-01-29T03:46:49.089Z,41.25
2023-01-29T03:49:31.707Z,20.92
2023-01-29T03:52:16.871Z,17.27
2023-01-29T03:54:57.813Z,19.77
2023-01-29T03:57:36.117Z,17.33
2023-01-29T04:00:16.522Z,16.80
2023-01-29T04:02:56.689Z,19.95
2023-01-29T04:08:20.681Z,20.88
2023-01-29T04:10:56.620Z,16.17
2023-01-29T04:13:33.771Z,21.90
2023-01-29T04:16:13.462Z,25.23
2023-01-29T04:19:05.079Z,20.75
2023-01-29T04:21:49.591Z,26.33
2023-01-29T04:24:21.597Z,20.58
2023-01-29T04:27:07.216Z,13.35
2023-01-29T04:29:50.257Z,19.40
2023-01-29T04:32:29.599Z,11.60
2023-01-29T04:35:09.495Z,17.10
2023-01-29T04:37:50.875Z,12.60
2023-01-29T04:40:31.881Z,11.23
2023-01-29T04:43:08.603Z,12.95
2023-01-29T04:45:48.329Z,12.95
2023-01-29T04:48:25.926Z,14.95
2023-01-29T04:51:03.474Z,13.93
2023-01-29T04:53:47.372Z,18.20
2023-01-29T04:56:23.598Z,12.93
2023-01-29T04:59:02.157Z,13.10
2023-01-29T05:01:35.734Z,11.57
2023-01-29T05:04:14.106Z,13.95
2023-01-29T05:06:48.118Z,13.10
2023-01-29T05:09:22.384Z,15.05
2023-01-29T05:11:55.753Z,11.85
2023-01-29T05:14:30.615Z,11.32
2023-01-29T05:17:05.792Z,12.73
2023-01-29T05:19:37.797Z,12.32
2023-01-29T05:22:12.525Z,13.48
2023-01-29T05:24:46.670Z,14.27
2023-01-29T05:27:39.967Z,13.60
2023-01-29T05:30:12.368Z,12.50
2023-01-29T05:32:44.294Z,13.27
2023-01-29T05:35:16.483Z,11.73
2023-01-29T05:37:48.402Z,11.82
2023-01-29T05:40:21.773Z,12.48
2023-01-29T05:42:53.669Z,14.82
2023-01-29T05:45:26.255Z,12.73
2023-01-29T05:47:59.235Z,12.27
2023-01-29T05:50:32.125Z,11.05
2023-01-29T05:53:04.121Z,13.68
2023-01-29T05:55:37.461Z,9.38
2023-01-29T05:58:09.376Z,10.43
2023-01-29T06:00:41.637Z,12.18
2023-01-29T06:03:13.618Z,10.18
2023-01-29T06:05:45.740Z,9.75
2023-01-29T06:08:17.677Z,11.65
2023-01-29T06:10:51.037Z,14.27
2023-01-29T06:13:23.797Z,15.30
2023-01-29T06:15:55.974Z,10.52
2023-01-29T06:18:27.928Z,11.40
2023-01-29T06:21:02.151Z,13.23
2023-01-29T06:23:34.184Z,12.98
2023-01-29T06:26:10.453Z,9.82
2023-01-29T06:28:42.706Z,12.80
2023-01-29T06:34:06.905Z,15.98
2023-01-29T06:36:38.904Z,12.50
2023-01-29T06:39:11.088Z,10.40
2023-01-29T06:41:45.606Z,9.98
2023-01-29T06:44:17.554Z,16.23
2023-01-29T06:46:49.477Z,30.92
2023-01-29T06:49:21.478Z,38.35
2023-01-29T06:51:53.411Z,22.88
2023-01-29T06:54:25.355Z,25.88
2023-01-29T06:56:58.767Z,27.23
2023-01-29T06:59:30.823Z,24.45
2023-01-29T07:02:03.657Z,16.38
2023-01-29T07:04:36.770Z,18.67
2023-01-29T07:07:13.391Z,20.73
2023-01-29T07:09:45.388Z,21.50
2023-01-29T07:12:18.775Z,17.40
2023-01-29T07:14:50.751Z,14.15
2023-01-29T07:17:22.926Z,20.13
2023-01-29T07:19:54.912Z,21.17
2023-01-29T07:22:26.975Z,21.67
2023-01-29T07:24:58.985Z,27.67
2023-01-29T07:27:32.357Z,24.50
2023-01-29T07:30:05.167Z,35.33
2023-01-29T07:32:37.115Z,43.70
2023-01-29T07:35:09.805Z,46.42
2023-01-29T07:37:41.804Z,52.25
2023-01-29T07:40:14.397Z,50.40
2023-01-29T07:42:48.007Z,47.60
2023-01-29T07:45:19.979Z,29.98
2023-01-29T07:47:53.143Z,27.27
2023-01-29T07:50:26.086Z,36.40
2023-01-29T07:52:58.157Z,20.60
2023-01-29T07:55:30.294Z,23.73
2023-01-29T07:58:03.786Z,17.92
2023-01-29T08:00:36.573Z,19.50
2023-01-29T08:03:13.649Z,21.20
2023-01-29T08:05:45.928Z,16.23
2023-01-29T08:08:19.403Z,17.33
2023-01-29T08:10:51.537Z,19.10
2023-01-29T08:13:24.880Z,21.17
2023-01-29T08:16:00.315Z,16.90
2023-01-29T08:18:32.406Z,20.23
2023-01-29T08:21:04.526Z,18.10
2023-01-29T08:23:36.500Z,18.38
2023-01-29T08:26:08.787Z,14.63
2023-01-29T08:28:42.195Z,17.77
2023-01-29T08:31:15.427Z,17.40
2023-01-29T08:33:47.756Z,18.63
2023-01-29T08:36:19.692Z,17.70
2023-01-29T08:38:51.655Z,16.50
2023-01-29T08:41:23.599Z,31.42
2023-01-29T08:43:57.766Z,17.35
2023-01-29T08:46:29.943Z,19.90
2023-01-29T08:49:01.918Z,21.10
2023-01-29T08:51:33.975Z,20.25
2023-01-29T08:54:06.033Z,18.17
2023-01-29T08:56:38.309Z,17.95
2023-01-29T08:59:11.807Z,22.85
2023-01-29T09:01:43.707Z,23.63
2023-01-29T09:04:15.686Z,18.92
2023-01-29T09:06:47.596Z,22.10
2023-01-29T09:09:19.536Z,23.23
2023-01-29T09:11:51.474Z,22.55
2023-01-29T09:14:24.945Z,18.20
2023-01-29T09:16:57.136Z,19.52
2023-01-29T09:19:29.224Z,16.02
2023-01-29T09:22:01.136Z,14.05
2023-01-29T09:24:35.092Z,13.02
2023-01-29T09:27:07.262Z,16.40
2023-01-29T09:29:40.753Z,17.42
2023-01-29T09:32:12.736Z,15.98
2023-01-29T09:34:44.698Z,12.65
2023-01-29T09:37:17.804Z,14.10
2023-01-29T09:39:49.901Z,15.20
2023-01-29T09:42:27.603Z,18.23
2023-01-29T09:45:06.025Z,17.95
2023-01-29T09:47:38.212Z,16.42
2023-01-29T09:50:19.033Z,17.85
2023-01-29T09:52:57.987Z,18.65
2023-01-29T09:55:35.370Z,16.30
2023-01-29T09:58:14.351Z,16.45
2023-01-29T10:00:56.497Z,15.40
2023-01-29T10:04:04.676Z,16.45
2023-01-29T10:06:59.088Z,13.00
2023-01-29T10:09:57.500Z,11.38
2023-01-29T10:12:49.726Z,19.33
2023-01-29T10:15:39.018Z,14.10
2023-01-29T10:18:41.581Z,35.17
2023-01-29T10:21:28.486Z,15.50
2023-01-29T10:24:13.327Z,12.13
2023-01-29T10:26:45.407Z,14.50
2023-01-29T10:29:22.092Z,23.33
2023-01-29T10:31:57.254Z,17.90
2023-01-29T10:34:36.647Z,23.05
2023-01-29T10:37:16.859Z,14.27
2023-01-29T10:39:49.087Z,17.00
2023-01-29T10:42:30.373Z,15.70
2023-01-29T10:45:19.835Z,11.95
2023-01-29T10:48:19.343Z,13.45
2023-01-29T10:50:59.327Z,14.55
2023-01-29T10:53:45.843Z,14.88
2023-01-29T10:56:37.648Z,18.20
2023-01-29T10:59:32.744Z,12.75
2023-01-29T11:02:14.950Z,11.43
2023-01-29T11:04:47.353Z,14.18
2023-01-29T11:07:22.764Z,11.45
2023-01-29T11:10:02.561Z,13.75
2023-01-29T11:12:36.667Z,16.90
2023-01-29T11:15:18.406Z,20.70
2023-01-29T11:18:05.820Z,14.32
2023-01-29T11:20:37.816Z,13.23
2023-01-29T11:23:27.936Z,14.73
2023-01-29T11:26:00.922Z,12.68
2023-01-29T11:28:38.336Z,13.57
2023-01-29T11:31:22.985Z,17.75
2023-01-29T11:34:04.092Z,18.35
2023-01-29T11:36:38.373Z,20.95
2023-01-29T11:39:17.321Z,18.67
2023-01-29T11:41:53.035Z,18.02
2023-01-29T11:44:30.527Z,25.27
2023-01-29T11:47:18.124Z,19.20
2023-01-29T11:49:52.742Z,16.90
2023-01-29T11:52:27.666Z,15.52
2023-01-29T11:55:04.193Z,17.70
2023-01-29T11:57:39.116Z,14.48
2023-01-29T12:00:22.152Z,15.73
2023-01-29T12:02:56.183Z,18.63
2023-01-29T12:05:28.288Z,17.02
2023-01-29T12:08:02.207Z,15.98
2023-01-29T12:10:37.839Z,18.08
2023-01-29T12:13:26.163Z,14.13
2023-01-29T12:16:21.879Z,14.13
2023-01-29T12:18:58.357Z,16.33
2023-01-29T12:21:37.032Z,12.57
2023-01-29T12:24:18.194Z,15.50
2023-01-29T12:26:57.919Z,14.57
2023-01-29T12:29:38.095Z,16.88
2023-01-29T12:32:23.111Z,14.80
2023-01-29T12:35:02.760Z,15.60
2023-01-29T12:37:41.086Z,21.13
2023-01-29T12:40:15.556Z,18.83
2023-01-29T12:42:54.970Z,15.60
2023-01-29T12:45:29.256Z,13.70
2023-01-29T12:48:06.457Z,13.88
2023-01-29T12:50:38.990Z,14.27
2023-01-29T12:53:26.521Z,13.82
2023-01-29T12:56:02.760Z,12.98
2023-01-29T12:58:42.295Z,12.20
2023-01-29T13:01:17.327Z,13.45
2023-01-29T13:03:53.852Z,22.02
2023-01-29T13:06:30.664Z,13.57
2023-01-29T13:09:06.371Z,15.75
2023-01-29T13:11:41.484Z,19.90
2023-01-29T13:14:22.797Z,13.27
2023-01-29T13:17:02.586Z,16.20
2023-01-29T13:19:40.191Z,15.07
2023-01-29T13:22:20.097Z,11.98
2023-01-29T13:25:04.007Z,14.27
2023-01-29T13:27:37.374Z,15.18
2023-01-29T13:30:25.270Z,16.23
2023-01-29T13:33:09.840Z,15.18
2023-01-29T13:35:45.022Z,18.05
2023-01-29T13:38:25.468Z,24.30
2023-01-29T13:41:02.048Z,18.00
2023-01-29T13:43:36.598Z,19.05
2023-01-29T13:46:12.965Z,15.55
2023-01-29T13:48:48.301Z,17.05
2023-01-29T13:51:22.890Z,14.73
2023-01-29T13:53:57.505Z,19.42
2023-01-29T13:56:43.094Z,17.63
2023-01-29T13:59:23.589Z,12.88
2023-01-29T14:04:36.636Z,12.75
2023-01-29T14:07:49.012Z,18.40
2023-01-29T14:10:23.172Z,22.60
2023-01-29T14:13:27.273Z,19.33
2023-01-29T14:16:35.194Z,21.13
2023-01-29T14:19:07.697Z,20.75
2023-01-29T14:21:41.111Z,21.70
2023-01-29T14:24:19.676Z,14.50
2023-01-29T14:26:55.232Z,17.88
2023-01-29T14:29:35.009Z,16.90
2023-01-29T14:32:15.515Z,24.95
2023-01-29T14:37:27.103Z,31.08
2023-01-29T14:40:15.376Z,20.20
2023-01-29T14:42:57.270Z,45.17
2023-01-29T14:45:30.401Z,50.92
2023-01-29T14:48:37.525Z,79.40
2023-01-29T14:51:12.943Z,42.40
2023-01-29T14:53:53.341Z,35.60
2023-01-29T14:56:33.827Z,36.88
2023-01-29T14:59:16.339Z,39.05
2023-01-29T15:01:52.665Z,35.15
2023-01-29T15:04:27.658Z,58.78
2023-01-29T15:07:04.325Z,42.38
2023-01-29T15:09:42.696Z,72.18
2023-01-29T15:12:23.444Z,75.00
2023-01-29T15:15:07.603Z,46.30
2023-01-29T15:17:46.074Z,27.77
2023-01-29T15:20:32.438Z,19.13
2023-01-29T15:23:23.621Z,15.77
2023-01-29T15:25:58.173Z,18.25
2023-01-29T15:28:33.329Z,17.10
2023-01-29T15:31:12.015Z,30.02
2023-01-29T15:33:48.209Z,43.00
2023-01-29T15:36:22.606Z,29.20
2023-01-29T15:39:15.298Z,18.85
2023-01-29T15:41:47.658Z,20.90
2023-01-29T15:44:23.022Z,25.23
2023-01-29T15:46:58.218Z,25.45
2023-01-29T15:49:33.475Z,36.92
2023-01-29T15:52:08.454Z,20.30
2023-01-29T15:54:40.613Z,28.45
2023-01-29T15:57:20.555Z,14.10
2023-01-29T15:59:57.810Z,13.52
2023-01-29T16:02:38.535Z,29.70
2023-01-29T16:05:15.587Z,22.20
2023-01-29T16:07:49.294Z,17.80
2023-01-29T16:10:23.009Z,20.65
2023-01-29T16:12:55.847Z,13.20
2023-01-29T16:15:32.707Z,14.40
2023-01-29T16:18:21.251Z,12.98
2023-01-29T16:20:55.847Z,17.40
2023-01-29T16:23:30.913Z,24.13
2023-01-29T16:26:06.368Z,18.48
2023-01-29T16:28:41.568Z,12.73
2023-01-29T16:31:22.562Z,12.80
2023-01-29T16:33:57.827Z,15.98
2023-01-29T16:36:29.864Z,15.68
2023-01-29T16:39:05.596Z,18.50
2023-01-29T16:41:38.665Z,17.08
2023-01-29T16:44:33.330Z,13.02
2023-01-29T16:47:14.272Z,14.80
2023-01-29T16:49:50.361Z,15.52
2023-01-29T16:52:25.900Z,16.33
2023-01-29T16:55:16.405Z,17.77
2023-01-29T16:57:53.199Z,16.40
2023-01-29T17:00:27.388Z,18.77
2023-01-29T17:03:05.533Z,13.40
2023-01-29T17:05:38.553Z,11.20
2023-01-29T17:08:19.860Z,17.73
2023-01-29T17:10:52.864Z,12.10
2023-01-29T17:13:30.266Z,15.05
2023-01-29T17:16:14.041Z,14.15
2023-01-29T17:18:47.409Z,16.10
2023-01-29T17:21:19.382Z,15.07
2023-01-29T17:23:52.043Z,18.48
2023-01-29T17:26:24.985Z,17.13
2023-01-29T17:28:57.105Z,11.23
2023-01-29T17:31:29.318Z,15.32
2023-01-29T17:34:02.658Z,19.38
2023-01-29T17:36:34.604Z,21.38
2023-01-29T17:39:18.887Z,13.63
2023-01-29T17:41:52.604Z,15.98
2023-01-29T17:44:28.125Z,14.82
2023-01-29T17:47:00.869Z,48.50
2023-01-29T17:49:34.275Z,15.63
2023-01-29T17:52:06.255Z,13.35
2023-01-29T17:54:38.323Z,14.48
2023-01-29T17:57:13.965Z,14.35
2023-01-29T17:59:45.998Z,13.23
2023-01-29T18:02:29.153Z,12.50
2023-01-29T18:05:03.289Z,28.63
2023-01-29T18:07:36.767Z,17.58
2023-01-29T18:10:14.093Z,16.20
2023-01-29T18:12:46.185Z,12.63
2023-01-29T18:15:18.433Z,13.88
2023-01-29T18:17:52.929Z,13.55
2023-01-29T18:20:26.564Z,18.55
2023-01-29T18:22:58.533Z,14.38
2023-01-29T18:25:30.620Z,14.32
2023-01-29T18:28:03.089Z,14.95
2023-01-29T18:30:35.058Z,12.05
2023-01-29T18:33:07.066Z,13.65
2023-01-29T18:35:40.412Z,10.05
2023-01-29T18:38:12.419Z,16.38
2023-01-29T18:40:44.393Z,14.32
2023-01-29T18:43:16.684Z,11.50
2023-01-29T18:45:49.484Z,12.75
2023-01-29T18:48:21.479Z,12.68
2023-01-29T18:50:54.846Z,9.95
2023-01-29T18:53:27.143Z,12.70
2023-01-29T18:56:00.534Z,10.95
2023-01-29T18:58:36.506Z,12.75
2023-01-29T19:01:11.863Z,17.90
2023-01-29T19:03:43.890Z,18.83
2023-01-29T19:06:17.207Z,13.60
2023-01-29T19:08:49.522Z,22.30
2023-01-29T19:11:21.502Z,12.75
2023-01-29T19:13:53.485Z,14.63
2023-01-29T19:16:25.827Z,10.63
2023-01-29T19:18:59.140Z,9.70
2023-01-29T19:21:35.892Z,12.15
2023-01-29T19:24:10.117Z,17.85
2023-01-29T19:26:42.047Z,21.55
2023-01-29T19:29:14.408Z,25.85
2023-01-29T19:31:47.481Z,18.55
2023-01-29T19:34:19.493Z,17.63
2023-01-29T19:36:52.825Z,10.57
2023-01-29T19:39:24.778Z,9.52
2023-01-29T19:41:56.702Z,22.10
2023-01-29T19:44:28.727Z,48.35
2023-01-29T19:47:01.030Z,44.88
2023-01-29T19:49:34.653Z,38.83
2023-01-29T19:52:15.054Z,32.92
2023-01-29T19:54:48.062Z,13.77
2023-01-29T19:57:19.955Z,14.18
2023-01-29T19:59:51.932Z,19.17
2023-01-29T20:02:25.038Z,17.90
2023-01-29T20:04:57.571Z,30.90
2023-01-29T20:07:30.940Z,56.40
2023-01-29T20:10:04.014Z,12.48
2023-01-29T20:12:35.965Z,9.60
2023-01-29T20:15:08.552Z,27.98
2023-01-29T20:17:40.468Z,14.00
2023-01-29T20:20:12.783Z,17.45
2023-01-29T20:22:46.329Z,12.18
2023-01-29T20:25:18.251Z,8.50
2023-01-29T20:27:50.174Z,49.58
2023-01-29T20:30:22.192Z,13.02
2023-01-29T20:32:54.179Z,18.00
2023-01-29T20:35:26.377Z,21.45
2023-01-29T20:38:00.327Z,14.40
2023-01-29T20:40:32.510Z,7.55
2023-01-29T20:43:04.407Z,9.70
2023-01-29T20:45:39.551Z,12.40
2023-01-29T20:48:11.466Z,16.60
2023-01-29T20:50:43.462Z,16.75
2023-01-29T20:53:16.783Z,29.33
2023-01-29T20:55:48.972Z,30.35
2023-01-29T20:58:21.427Z,56.70
2023-01-29T21:00:53.433Z,35.90
2023-01-29T21:03:25.540Z,14.57
2023-01-29T21:05:59.240Z,8.15
2023-01-29T21:08:33.376Z,8.20
2023-01-29T21:11:07.521Z,12.55
2023-01-29T21:13:39.576Z,8.45
2023-01-29T21:16:11.637Z,4.82
2023-01-29T21:18:43.586Z,6.78
2023-01-29T21:21:15.628Z,5.18
2023-01-29T21:23:49.166Z,4.20
2023-01-29T21:26:21.313Z,11.18
2023-01-29T21:28:53.343Z,9.55
2023-01-29T21:31:25.433Z,25.00
2023-01-29T21:33:57.435Z,8.13
2023-01-29T21:36:29.387Z,4.32
2023-01-29T21:39:16.471Z,19.67
2023-01-29T21:42:08.523Z,10.52
2023-01-29T21:44:40.449Z,18.27
2023-01-29T21:47:12.558Z,30.80
2023-01-29T21:49:44.924Z,18.27
2023-01-29T21:52:16.879Z,6.85
2023-01-29T21:54:50.302Z,12.90
2023-01-29T21:57:26.728Z,7.95
2023-01-29T21:59:59.459Z,24.63
2023-01-29T22:02:32.224Z,8.98
2023-01-29T22:05:18.230Z,12.73
2023-01-29T22:07:51.036Z,12.25
2023-01-29T22:10:24.506Z,72.07
2023-01-29T22:12:56.771Z,47.03
2023-01-29T22:15:28.773Z,17.75
2023-01-29T22:18:00.721Z,7.63
2023-01-29T22:20:32.712Z,16.45
2023-01-29T22:23:04.821Z,15.10
2023-01-29T22:25:38.147Z,17.08
2023-01-29T22:28:10.107Z,18.63
2023-01-29T22:30:42.151Z,11.75
2023-01-29T22:33:14.172Z,16.63
2023-01-29T22:35:46.115Z,9.00
2023-01-29T22:38:18.101Z,12.38
2023-01-29T22:40:51.805Z,9.48
2023-01-29T22:43:25.981Z,17.08
2023-01-29T22:45:58.002Z,6.72
2023-01-29T22:48:30.620Z,18.13
2023-01-29T22:51:11.878Z,11.13
2023-01-29T22:53:49.437Z,18.83
2023-01-29T22:56:27.412Z,7.43
2023-01-29T22:59:00.725Z,15.15
2023-01-29T23:01:33.023Z,9.13
2023-01-29T23:04:05.089Z,8.85
2023-01-29T23:06:37.005Z,11.25
2023-01-29T23:09:09.176Z,10.40
2023-01-29T23:11:42.486Z,9.27
2023-01-29T23:14:14.474Z,11.02
2023-01-29T23:16:46.463Z,11.25
2023-01-29T23:19:18.540Z,12.27
2023-01-29T23:21:50.479Z,15.95
2023-01-29T23:24:22.747Z,9.27
2023-01-29T23:27:14.699Z,14.90
2023-01-29T23:29:48.457Z,11.75
2023-01-29T23:32:21.548Z,7.50
2023-01-29T23:34:53.565Z,8.10
2023-01-29T23:37:25.883Z,9.15
2023-01-29T23:39:57.832Z,5.57
2023-01-29T23:42:31.116Z,6.53
2023-01-29T23:45:03.222Z,7.93
2023-01-29T23:47:35.603Z,8.35
2023-01-29T23:50:08.711Z,10.43
2023-01-29T23:52:40.662Z,5.65
2023-01-29T23:55:12.607Z,4.60
2023-01-29T23:57:45.967Z,5.57
